sensor_id;sensor_type;location;lat;lon;timestamp;P1;durP1;ratioP1;P2;durP2;ratioP2
41514;SDS011;27247;48.020;16.720;2024-02-26T00:03:38;18.20;;;8.23;;
41514;SDS011;27247;48.020;16.720;2024-02-26T00:07:51;16.10;;;7.40;;
41514;SDS011;27247;48.020;16.720;2024-02-26T00:12:02;15.82;;;6.90;;
41514;SDS011;27247;48.020;16.720;2024-02-26T00:16:13;15.70;;;7.72;;
41514;SDS011;27247;48.020;16.720;2024-02-26T00:20:24;16.50;;;7.85;;
41514;SDS011;27247;48.020;16.720;2024-02-26T00:24:34;15.60;;;7.43;;
41514;SDS011;27247;48.020;16.720;2024-02-26T00:28:44;15.90;;;9.00;;
41514;SDS011;27247;48.020;16.720;2024-02-26T00:32:55;16.90;;;8.18;;
41514;SDS011;27247;48.020;16.720;2024-02-26T00:37:05;16.17;;;9.00;;
41514;SDS011;27247;48.020;16.720;2024-02-26T00:41:19;21.73;;;9.38;;
41514;SDS011;27247;48.020;16.720;2024-02-26T00:45:30;16.23;;;8.85;;
41514;SDS011;27247;48.020;16.720;2024-02-26T00:49:42;18.88;;;9.25;;
41514;SDS011;27247;48.020;16.720;2024-02-26T00:53:52;18.30;;;9.10;;
41514;SDS011;27247;48.020;16.720;2024-02-26T00:58:04;23.15;;;9.27;;
41514;SDS011;27247;48.020;16.720;2024-02-26T01:02:14;16.03;;;9.17;;
41514;SDS011;27247;48.020;16.720;2024-02-26T01:06:24;18.33;;;8.88;;
41514;SDS011;27247;48.020;16.720;2024-02-26T01:10:35;19.45;;;9.20;;
41514;SDS011;27247;48.020;16.720;2024-02-26T01:14:45;21.80;;;9.48;;
41514;SDS011;27247;48.020;16.720;2024-02-26T01:18:55;24.07;;;11.93;;
41514;SDS011;27247;48.020;16.720;2024-02-26T01:23:06;20.80;;;9.00;;
41514;SDS011;27247;48.020;16.720;2024-02-26T01:27:16;19.80;;;9.60;;
41514;SDS011;27247;48.020;16.720;2024-02-26T01:31:26;21.13;;;9.95;;
41514;SDS011;27247;48.020;16.720;2024-02-26T01:35:37;20.23;;;10.80;;
41514;SDS011;27247;48.020;16.720;2024-02-26T01:39:47;26.08;;;11.13;;
41514;SDS011;27247;48.020;16.720;2024-02-26T01:43:57;23.10;;;11.37;;
41514;SDS011;27247;48.020;16.720;2024-02-26T01:48:08;26.13;;;10.97;;
41514;SDS011;27247;48.020;16.720;2024-02-26T01:52:18;25.13;;;11.35;;
41514;SDS011;27247;48.020;16.720;2024-02-26T01:56:29;21.55;;;11.05;;
41514;SDS011;27247;48.020;16.720;2024-02-26T02:00:41;19.83;;;10.70;;
41514;SDS011;27247;48.020;16.720;2024-02-26T02:04:52;24.65;;;11.48;;
41514;SDS011;27247;48.020;16.720;2024-02-26T02:09:02;23.77;;;11.80;;
41514;SDS011;27247;48.020;16.720;2024-02-26T02:13:16;24.85;;;13.10;;
41514;SDS011;27247;48.020;16.720;2024-02-26T02:17:26;27.70;;;13.27;;
41514;SDS011;27247;48.020;16.720;2024-02-26T02:21:38;26.63;;;14.00;;
41514;SDS011;27247;48.020;16.720;2024-02-26T02:25:48;27.60;;;14.73;;
41514;SDS011;27247;48.020;16.720;2024-02-26T02:29:59;29.77;;;14.73;;
41514;SDS011;27247;48.020;16.720;2024-02-26T02:34:09;31.05;;;14.55;;
41514;SDS011;27247;48.020;16.720;2024-02-26T02:38:20;29.92;;;14.55;;
41514;SDS011;27247;48.020;16.720;2024-02-26T02:42:30;28.55;;;14.77;;
41514;SDS011;27247;48.020;16.720;2024-02-26T02:46:41;28.13;;;13.35;;
41514;SDS011;27247;48.020;16.720;2024-02-26T02:50:51;29.30;;;13.98;;
41514;SDS011;27247;48.020;16.720;2024-02-26T02:55:02;24.58;;;13.73;;
41514;SDS011;27247;48.020;16.720;2024-02-26T02:59:12;29.95;;;14.98;;
41514;SDS011;27247;48.020;16.720;2024-02-26T03:03:23;25.23;;;15.05;;
41514;SDS011;27247;48.020;16.720;2024-02-26T03:07:34;31.33;;;16.35;;
41514;SDS011;27247;48.020;16.720;2024-02-26T03:11:44;29.73;;;15.93;;
41514;SDS011;27247;48.020;16.720;2024-02-26T03:15:55;35.63;;;17.60;;
41514;SDS011;27247;48.020;16.720;2024-02-26T03:20:05;35.47;;;18.80;;
41514;SDS011;27247;48.020;16.720;2024-02-26T03:24:18;31.92;;;18.08;;
41514;SDS011;27247;48.020;16.720;2024-02-26T03:28:28;30.70;;;17.92;;
41514;SDS011;27247;48.020;16.720;2024-02-26T03:32:39;38.53;;;21.13;;
41514;SDS011;27247;48.020;16.720;2024-02-26T03:36:49;36.70;;;20.23;;
41514;SDS011;27247;48.020;16.720;2024-02-26T03:40:59;38.30;;;20.43;;
41514;SDS011;27247;48.020;16.720;2024-02-26T03:45:10;41.58;;;22.70;;
41514;SDS011;27247;48.020;16.720;2024-02-26T03:49:20;39.65;;;21.05;;
41514;SDS011;27247;48.020;16.720;2024-02-26T03:53:31;40.67;;;21.42;;
41514;SDS011;27247;48.020;16.720;2024-02-26T03:57:42;49.07;;;21.87;;
41514;SDS011;27247;48.020;16.720;2024-02-26T04:01:52;47.73;;;24.60;;
41514;SDS011;27247;48.020;16.720;2024-02-26T04:06:02;39.83;;;22.23;;
41514;SDS011;27247;48.020;16.720;2024-02-26T04:10:13;47.65;;;24.15;;
41514;SDS011;27247;48.020;16.720;2024-02-26T04:14:24;52.00;;;25.05;;
41514;SDS011;27247;48.020;16.720;2024-02-26T04:18:34;49.58;;;26.80;;
41514;SDS011;27247;48.020;16.720;2024-02-26T04:22:45;46.47;;;25.80;;
41514;SDS011;27247;48.020;16.720;2024-02-26T04:26:55;45.88;;;25.65;;
41514;SDS011;27247;48.020;16.720;2024-02-26T04:31:05;50.63;;;25.97;;
41514;SDS011;27247;48.020;16.720;2024-02-26T04:35:16;49.45;;;25.88;;
41514;SDS011;27247;48.020;16.720;2024-02-26T04:39:27;47.80;;;24.35;;
41514;SDS011;27247;48.020;16.720;2024-02-26T04:43:37;45.87;;;24.27;;
41514;SDS011;27247;48.020;16.720;2024-02-26T04:47:54;48.15;;;25.30;;
41514;SDS011;27247;48.020;16.720;2024-02-26T04:52:04;47.03;;;23.83;;
41514;SDS011;27247;48.020;16.720;2024-02-26T04:56:15;49.60;;;23.58;;
41514;SDS011;27247;48.020;16.720;2024-02-26T05:00:25;50.92;;;22.80;;
41514;SDS011;27247;48.020;16.720;2024-02-26T05:04:35;45.17;;;21.53;;
41514;SDS011;27247;48.020;16.720;2024-02-26T05:08:46;47.80;;;23.67;;
41514;SDS011;27247;48.020;16.720;2024-02-26T05:12:56;45.27;;;23.47;;
41514;SDS011;27247;48.020;16.720;2024-02-26T05:17:07;48.30;;;23.77;;
41514;SDS011;27247;48.020;16.720;2024-02-26T05:21:17;51.67;;;24.00;;
41514;SDS011;27247;48.020;16.720;2024-02-26T05:25:27;53.17;;;24.95;;
41514;SDS011;27247;48.020;16.720;2024-02-26T05:29:38;47.77;;;25.37;;
41514;SDS011;27247;48.020;16.720;2024-02-26T05:33:48;50.10;;;25.27;;
41514;SDS011;27247;48.020;16.720;2024-02-26T05:37:58;51.30;;;25.30;;
41514;SDS011;27247;48.020;16.720;2024-02-26T05:42:09;48.60;;;25.37;;
41514;SDS011;27247;48.020;16.720;2024-02-26T05:46:20;44.50;;;24.33;;
41514;SDS011;27247;48.020;16.720;2024-02-26T05:50:30;45.90;;;24.35;;
41514;SDS011;27247;48.020;16.720;2024-02-26T05:54:40;47.90;;;23.27;;
41514;SDS011;27247;48.020;16.720;2024-02-26T05:58:51;51.57;;;26.33;;
41514;SDS011;27247;48.020;16.720;2024-02-26T06:03:01;53.03;;;25.15;;
41514;SDS011;27247;48.020;16.720;2024-02-26T06:07:12;54.63;;;23.73;;
41514;SDS011;27247;48.020;16.720;2024-02-26T06:11:22;51.80;;;25.45;;
41514;SDS011;27247;48.020;16.720;2024-02-26T06:15:33;48.17;;;25.33;;
41514;SDS011;27247;48.020;16.720;2024-02-26T06:19:43;57.75;;;24.63;;
41514;SDS011;27247;48.020;16.720;2024-02-26T06:23:53;51.60;;;24.42;;
41514;SDS011;27247;48.020;16.720;2024-02-26T06:28:04;53.35;;;25.02;;
41514;SDS011;27247;48.020;16.720;2024-02-26T06:32:15;54.90;;;24.00;;
41514;SDS011;27247;48.020;16.720;2024-02-26T06:36:25;55.10;;;26.60;;
41514;SDS011;27247;48.020;16.720;2024-02-26T06:40:35;57.38;;;24.45;;
41514;SDS011;27247;48.020;16.720;2024-02-26T06:44:46;52.90;;;23.07;;
41514;SDS011;27247;48.020;16.720;2024-02-26T06:48:56;53.23;;;26.10;;
41514;SDS011;27247;48.020;16.720;2024-02-26T06:53:06;52.37;;;24.27;;
41514;SDS011;27247;48.020;16.720;2024-02-26T06:57:17;54.25;;;24.27;;
41514;SDS011;27247;48.020;16.720;2024-02-26T07:01:27;51.90;;;24.70;;
41514;SDS011;27247;48.020;16.720;2024-02-26T07:05:38;49.72;;;24.70;;
41514;SDS011;27247;48.020;16.720;2024-02-26T07:09:48;52.33;;;24.03;;
41514;SDS011;27247;48.020;16.720;2024-02-26T07:13:58;50.53;;;22.73;;
41514;SDS011;27247;48.020;16.720;2024-02-26T07:18:08;55.78;;;24.45;;
41514;SDS011;27247;48.020;16.720;2024-02-26T07:22:20;43.47;;;21.30;;
41514;SDS011;27247;48.020;16.720;2024-02-26T07:26:30;49.83;;;22.42;;
41514;SDS011;27247;48.020;16.720;2024-02-26T07:30:41;40.42;;;20.25;;
41514;SDS011;27247;48.020;16.720;2024-02-26T07:34:52;37.03;;;18.27;;
41514;SDS011;27247;48.020;16.720;2024-02-26T07:39:02;46.90;;;18.73;;
41514;SDS011;27247;48.020;16.720;2024-02-26T07:43:12;35.88;;;15.98;;
41514;SDS011;27247;48.020;16.720;2024-02-26T07:47:23;35.60;;;15.63;;
41514;SDS011;27247;48.020;16.720;2024-02-26T07:51:33;27.97;;;15.30;;
41514;SDS011;27247;48.020;16.720;2024-02-26T07:55:44;27.65;;;13.98;;
41514;SDS011;27247;48.020;16.720;2024-02-26T07:59:55;23.93;;;12.83;;
41514;SDS011;27247;48.020;16.720;2024-02-26T08:04:05;21.73;;;10.30;;
41514;SDS011;27247;48.020;16.720;2024-02-26T08:08:16;23.97;;;10.50;;
41514;SDS011;27247;48.020;16.720;2024-02-26T08:12:26;21.73;;;10.23;;
41514;SDS011;27247;48.020;16.720;2024-02-26T08:16:36;16.42;;;9.63;;
41514;SDS011;27247;48.020;16.720;2024-02-26T08:20:46;16.70;;;8.60;;
41514;SDS011;27247;48.020;16.720;2024-02-26T08:24:58;12.77;;;7.35;;
41514;SDS011;27247;48.020;16.720;2024-02-26T08:29:09;14.40;;;6.68;;
41514;SDS011;27247;48.020;16.720;2024-02-26T08:33:19;17.57;;;6.27;;
41514;SDS011;27247;48.020;16.720;2024-02-26T08:37:30;12.33;;;5.57;;
41514;SDS011;27247;48.020;16.720;2024-02-26T08:41:40;14.23;;;5.65;;
41514;SDS011;27247;48.020;16.720;2024-02-26T08:45:50;8.30;;;5.40;;
41514;SDS011;27247;48.020;16.720;2024-02-26T08:50:01;11.40;;;6.20;;
41514;SDS011;27247;48.020;16.720;2024-02-26T08:54:11;13.77;;;6.25;;
41514;SDS011;27247;48.020;16.720;2024-02-26T08:58:21;13.23;;;6.35;;
41514;SDS011;27247;48.020;16.720;2024-02-26T09:02:32;11.07;;;5.65;;
41514;SDS011;27247;48.020;16.720;2024-02-26T09:06:43;12.65;;;5.60;;
41514;SDS011;27247;48.020;16.720;2024-02-26T09:10:53;8.40;;;5.03;;
41514;SDS011;27247;48.020;16.720;2024-02-26T09:15:03;17.55;;;6.07;;
41514;SDS011;27247;48.020;16.720;2024-02-26T09:19:14;9.65;;;5.40;;
41514;SDS011;27247;48.020;16.720;2024-02-26T09:23:27;9.52;;;5.43;;
41514;SDS011;27247;48.020;16.720;2024-02-26T09:27:37;15.20;;;5.83;;
41514;SDS011;27247;48.020;16.720;2024-02-26T09:31:48;9.67;;;5.00;;
41514;SDS011;27247;48.020;16.720;2024-02-26T09:35:58;9.27;;;4.55;;
41514;SDS011;27247;48.020;16.720;2024-02-26T09:40:10;6.10;;;3.50;;
41514;SDS011;27247;48.020;16.720;2024-02-26T09:44:21;18.27;;;4.80;;
41514;SDS011;27247;48.020;16.720;2024-02-26T09:48:34;7.38;;;3.38;;
41514;SDS011;27247;48.020;16.720;2024-02-26T09:52:45;7.18;;;3.63;;
41514;SDS011;27247;48.020;16.720;2024-02-26T09:56:56;5.63;;;3.77;;
41514;SDS011;27247;48.020;16.720;2024-02-26T10:01:11;12.13;;;5.15;;
41514;SDS011;27247;48.020;16.720;2024-02-26T10:05:26;13.25;;;4.25;;
41514;SDS011;27247;48.020;16.720;2024-02-26T10:09:37;8.48;;;4.15;;
41514;SDS011;27247;48.020;16.720;2024-02-26T10:13:47;7.95;;;4.28;;
41514;SDS011;27247;48.020;16.720;2024-02-26T10:17:58;7.80;;;5.07;;
41514;SDS011;27247;48.020;16.720;2024-02-26T10:22:08;6.63;;;3.83;;
41514;SDS011;27247;48.020;16.720;2024-02-26T10:26:18;9.07;;;3.60;;
41514;SDS011;27247;48.020;16.720;2024-02-26T10:30:29;7.68;;;3.60;;
41514;SDS011;27247;48.020;16.720;2024-02-26T10:34:40;3.67;;;2.70;;
41514;SDS011;27247;48.020;16.720;2024-02-26T10:38:51;6.15;;;2.80;;
41514;SDS011;27247;48.020;16.720;2024-02-26T10:43:03;7.93;;;3.00;;
41514;SDS011;27247;48.020;16.720;2024-02-26T10:47:13;5.57;;;3.00;;
41514;SDS011;27247;48.020;16.720;2024-02-26T10:51:28;4.05;;;2.53;;
41514;SDS011;27247;48.020;16.720;2024-02-26T10:55:39;9.52;;;3.80;;
41514;SDS011;27247;48.020;16.720;2024-02-26T10:59:51;5.68;;;2.80;;
41514;SDS011;27247;48.020;16.720;2024-02-26T11:04:01;5.35;;;2.50;;
41514;SDS011;27247;48.020;16.720;2024-02-26T11:08:13;3.83;;;2.53;;
41514;SDS011;27247;48.020;16.720;2024-02-26T11:12:24;9.77;;;2.53;;
41514;SDS011;27247;48.020;16.720;2024-02-26T11:16:35;3.78;;;2.13;;
41514;SDS011;27247;48.020;16.720;2024-02-26T11:20:46;3.78;;;2.45;;
41514;SDS011;27247;48.020;16.720;2024-02-26T11:24:58;5.13;;;2.10;;
41514;SDS011;27247;48.020;16.720;2024-02-26T11:29:11;4.57;;;2.38;;
41514;SDS011;27247;48.020;16.720;2024-02-26T11:33:23;5.05;;;2.10;;
41514;SDS011;27247;48.020;16.720;2024-02-26T11:37:34;4.93;;;1.98;;
41514;SDS011;27247;48.020;16.720;2024-02-26T11:41:45;3.35;;;1.77;;
41514;SDS011;27247;48.020;16.720;2024-02-26T11:45:56;2.80;;;1.60;;
41514;SDS011;27247;48.020;16.720;2024-02-26T11:54:49;5.05;;;2.05;;
41514;SDS011;27247;48.020;16.720;2024-02-26T11:59:04;2.57;;;1.67;;
41514;SDS011;27247;48.020;16.720;2024-02-26T12:03:19;3.58;;;1.60;;
41514;SDS011;27247;48.020;16.720;2024-02-26T12:07:30;4.13;;;1.90;;
41514;SDS011;27247;48.020;16.720;2024-02-26T12:11:41;3.08;;;1.50;;
41514;SDS011;27247;48.020;16.720;2024-02-26T12:15:56;3.42;;;1.85;;
41514;SDS011;27247;48.020;16.720;2024-02-26T12:20:08;2.35;;;1.45;;
41514;SDS011;27247;48.020;16.720;2024-02-26T12:24:20;3.00;;;1.30;;
41514;SDS011;27247;48.020;16.720;2024-02-26T12:28:31;7.43;;;1.48;;
41514;SDS011;27247;48.020;16.720;2024-02-26T12:32:41;3.97;;;2.00;;
41514;SDS011;27247;48.020;16.720;2024-02-26T12:36:53;2.70;;;1.58;;
41514;SDS011;27247;48.020;16.720;2024-02-26T12:41:04;1.67;;;1.55;;
41514;SDS011;27247;48.020;16.720;2024-02-26T12:45:14;4.67;;;1.60;;
41514;SDS011;27247;48.020;16.720;2024-02-26T12:49:26;2.25;;;1.40;;
41514;SDS011;27247;48.020;16.720;2024-02-26T12:53:36;2.95;;;1.38;;
41514;SDS011;27247;48.020;16.720;2024-02-26T12:57:47;6.22;;;1.40;;
41514;SDS011;27247;48.020;16.720;2024-02-26T13:01:59;4.10;;;1.35;;
41514;SDS011;27247;48.020;16.720;2024-02-26T13:06:10;1.95;;;1.17;;
41514;SDS011;27247;48.020;16.720;2024-02-26T13:10:21;1.67;;;1.00;;
41514;SDS011;27247;48.020;16.720;2024-02-26T13:14:31;3.15;;;1.13;;
41514;SDS011;27247;48.020;16.720;2024-02-26T13:18:43;4.45;;;1.30;;
41514;SDS011;27247;48.020;16.720;2024-02-26T13:23:03;12.25;;;2.15;;
41514;SDS011;27247;48.020;16.720;2024-02-26T13:27:20;10.50;;;2.97;;
41514;SDS011;27247;48.020;16.720;2024-02-26T13:31:32;1.80;;;0.90;;
41514;SDS011;27247;48.020;16.720;2024-02-26T13:35:49;5.10;;;1.10;;
41514;SDS011;27247;48.020;16.720;2024-02-26T13:39:59;2.40;;;1.42;;
41514;SDS011;27247;48.020;16.720;2024-02-26T13:44:09;4.55;;;1.23;;
41514;SDS011;27247;48.020;16.720;2024-02-26T13:48:20;1.03;;;0.97;;
41514;SDS011;27247;48.020;16.720;2024-02-26T13:52:30;2.03;;;1.10;;
41514;SDS011;27247;48.020;16.720;2024-02-26T13:56:42;4.28;;;1.80;;
41514;SDS011;27247;48.020;16.720;2024-02-26T14:00:54;2.75;;;1.10;;
41514;SDS011;27247;48.020;16.720;2024-02-26T14:05:04;2.33;;;1.15;;
41514;SDS011;27247;48.020;16.720;2024-02-26T14:09:15;5.53;;;1.50;;
41514;SDS011;27247;48.020;16.720;2024-02-26T14:13:28;0.90;;;0.80;;
41514;SDS011;27247;48.020;16.720;2024-02-26T14:17:39;5.78;;;1.13;;
41514;SDS011;27247;48.020;16.720;2024-02-26T14:21:49;4.28;;;1.00;;
41514;SDS011;27247;48.020;16.720;2024-02-26T14:26:00;1.03;;;0.80;;
41514;SDS011;27247;48.020;16.720;2024-02-26T14:30:11;2.10;;;1.17;;
41514;SDS011;27247;48.020;16.720;2024-02-26T14:34:22;2.85;;;1.05;;
41514;SDS011;27247;48.020;16.720;2024-02-26T14:38:32;2.13;;;1.43;;
41514;SDS011;27247;48.020;16.720;2024-02-26T14:42:43;1.65;;;0.80;;
41514;SDS011;27247;48.020;16.720;2024-02-26T14:46:54;3.25;;;1.25;;
41514;SDS011;27247;48.020;16.720;2024-02-26T14:51:04;3.05;;;1.35;;
41514;SDS011;27247;48.020;16.720;2024-02-26T14:55:16;3.10;;;1.38;;
41514;SDS011;27247;48.020;16.720;2024-02-26T14:59:26;1.85;;;1.05;;
41514;SDS011;27247;48.020;16.720;2024-02-26T15:03:37;2.10;;;1.20;;
41514;SDS011;27247;48.020;16.720;2024-02-26T15:07:47;3.20;;;1.30;;
41514;SDS011;27247;48.020;16.720;2024-02-26T15:11:58;2.55;;;1.08;;
41514;SDS011;27247;48.020;16.720;2024-02-26T15:16:08;3.80;;;1.30;;
41514;SDS011;27247;48.020;16.720;2024-02-26T15:20:19;3.28;;;1.30;;
41514;SDS011;27247;48.020;16.720;2024-02-26T15:24:29;5.53;;;1.67;;
41514;SDS011;27247;48.020;16.720;2024-02-26T15:28:39;0.83;;;0.80;;
41514;SDS011;27247;48.020;16.720;2024-02-26T15:32:50;2.38;;;1.42;;
41514;SDS011;27247;48.020;16.720;2024-02-26T15:37:00;3.37;;;1.20;;
41514;SDS011;27247;48.020;16.720;2024-02-26T15:41:11;4.97;;;1.30;;
41514;SDS011;27247;48.020;16.720;2024-02-26T15:45:22;2.72;;;1.38;;
41514;SDS011;27247;48.020;16.720;2024-02-26T15:49:34;4.75;;;1.65;;
41514;SDS011;27247;48.020;16.720;2024-02-26T15:53:45;1.80;;;1.20;;
41514;SDS011;27247;48.020;16.720;2024-02-26T15:57:55;5.72;;;1.77;;
41514;SDS011;27247;48.020;16.720;2024-02-26T16:02:06;2.37;;;1.57;;
41514;SDS011;27247;48.020;16.720;2024-02-26T16:06:19;3.17;;;1.27;;
41514;SDS011;27247;48.020;16.720;2024-02-26T16:10:34;4.05;;;1.48;;
41514;SDS011;27247;48.020;16.720;2024-02-26T16:19:05;1.77;;;1.42;;
41514;SDS011;27247;48.020;16.720;2024-02-26T16:23:18;3.58;;;1.25;;
41514;SDS011;27247;48.020;16.720;2024-02-26T16:27:28;1.42;;;1.10;;
41514;SDS011;27247;48.020;16.720;2024-02-26T16:31:39;5.78;;;1.48;;
41514;SDS011;27247;48.020;16.720;2024-02-26T16:35:49;3.57;;;1.47;;
41514;SDS011;27247;48.020;16.720;2024-02-26T16:40:00;4.77;;;1.70;;
41514;SDS011;27247;48.020;16.720;2024-02-26T16:44:11;3.80;;;1.95;;
41514;SDS011;27247;48.020;16.720;2024-02-26T16:48:22;2.10;;;1.73;;
41514;SDS011;27247;48.020;16.720;2024-02-26T16:52:32;3.93;;;2.33;;
41514;SDS011;27247;48.020;16.720;2024-02-26T16:56:43;5.85;;;1.88;;
41514;SDS011;27247;48.020;16.720;2024-02-26T17:00:53;8.07;;;2.30;;
41514;SDS011;27247;48.020;16.720;2024-02-26T17:05:04;5.32;;;1.75;;
41514;SDS011;27247;48.020;16.720;2024-02-26T17:09:15;4.70;;;2.22;;
41514;SDS011;27247;48.020;16.720;2024-02-26T17:13:25;3.55;;;1.85;;
41514;SDS011;27247;48.020;16.720;2024-02-26T17:17:38;4.07;;;1.73;;
41514;SDS011;27247;48.020;16.720;2024-02-26T17:21:48;4.57;;;2.17;;
41514;SDS011;27247;48.020;16.720;2024-02-26T17:25:59;2.67;;;1.73;;
41514;SDS011;27247;48.020;16.720;2024-02-26T17:30:12;2.97;;;1.80;;
41514;SDS011;27247;48.020;16.720;2024-02-26T17:34:23;2.80;;;1.90;;
41514;SDS011;27247;48.020;16.720;2024-02-26T17:38:33;4.00;;;2.17;;
41514;SDS011;27247;48.020;16.720;2024-02-26T17:42:44;5.15;;;2.10;;
41514;SDS011;27247;48.020;16.720;2024-02-26T17:46:55;4.25;;;2.03;;
41514;SDS011;27247;48.020;16.720;2024-02-26T17:51:05;6.65;;;1.88;;
41514;SDS011;27247;48.020;16.720;2024-02-26T17:55:18;2.72;;;1.65;;
41514;SDS011;27247;48.020;16.720;2024-02-26T17:59:28;3.97;;;1.67;;
41514;SDS011;27247;48.020;16.720;2024-02-26T18:03:39;3.08;;;1.60;;
41514;SDS011;27247;48.020;16.720;2024-02-26T18:07:50;4.22;;;1.85;;
41514;SDS011;27247;48.020;16.720;2024-02-26T18:12:01;4.18;;;1.60;;
41514;SDS011;27247;48.020;16.720;2024-02-26T18:16:11;3.88;;;1.25;;
41514;SDS011;27247;48.020;16.720;2024-02-26T18:20:22;3.92;;;1.20;;
41514;SDS011;27247;48.020;16.720;2024-02-26T18:24:33;1.73;;;1.40;;
41514;SDS011;27247;48.020;16.720;2024-02-26T18:28:44;2.45;;;1.23;;
41514;SDS011;27247;48.020;16.720;2024-02-26T18:32:56;1.67;;;1.35;;
41514;SDS011;27247;48.020;16.720;2024-02-26T18:37:07;3.35;;;1.30;;
41514;SDS011;27247;48.020;16.720;2024-02-26T18:41:20;2.47;;;1.45;;
41514;SDS011;27247;48.020;16.720;2024-02-26T18:45:32;4.13;;;1.70;;
41514;SDS011;27247;48.020;16.720;2024-02-26T18:49:43;4.38;;;1.50;;
41514;SDS011;27247;48.020;16.720;2024-02-26T18:53:54;6.20;;;1.80;;
41514;SDS011;27247;48.020;16.720;2024-02-26T18:58:05;3.30;;;1.50;;
41514;SDS011;27247;48.020;16.720;2024-02-26T19:02:16;2.47;;;1.63;;
41514;SDS011;27247;48.020;16.720;2024-02-26T19:06:27;5.15;;;1.88;;
41514;SDS011;27247;48.020;16.720;2024-02-26T19:10:38;4.45;;;2.03;;
41514;SDS011;27247;48.020;16.720;2024-02-26T19:14:50;4.05;;;1.90;;
41514;SDS011;27247;48.020;16.720;2024-02-26T19:19:01;3.95;;;2.30;;
41514;SDS011;27247;48.020;16.720;2024-02-26T19:23:17;2.10;;;1.30;;
41514;SDS011;27247;48.020;16.720;2024-02-26T19:27:29;3.00;;;1.73;;
41514;SDS011;27247;48.020;16.720;2024-02-26T19:31:42;2.97;;;1.70;;
41514;SDS011;27247;48.020;16.720;2024-02-26T19:35:53;2.63;;;1.88;;
41514;SDS011;27247;48.020;16.720;2024-02-26T19:40:04;5.00;;;2.10;;
41514;SDS011;27247;48.020;16.720;2024-02-26T19:44:17;3.35;;;1.55;;
41514;SDS011;27247;48.020;16.720;2024-02-26T19:48:28;2.53;;;1.52;;
41514;SDS011;27247;48.020;16.720;2024-02-26T19:52:40;2.97;;;1.70;;
41514;SDS011;27247;48.020;16.720;2024-02-26T19:56:51;6.55;;;2.30;;
41514;SDS011;27247;48.020;16.720;2024-02-26T20:01:04;3.92;;;1.75;;
41514;SDS011;27247;48.020;16.720;2024-02-26T20:05:17;8.20;;;2.90;;
41514;SDS011;27247;48.020;16.720;2024-02-26T20:09:29;9.50;;;4.75;;
41514;SDS011;27247;48.020;16.720;2024-02-26T20:13:42;5.05;;;2.53;;
41514;SDS011;27247;48.020;16.720;2024-02-26T20:17:53;3.63;;;2.33;;
41514;SDS011;27247;48.020;16.720;2024-02-26T20:22:04;4.07;;;2.53;;
41514;SDS011;27247;48.020;16.720;2024-02-26T20:26:17;7.82;;;3.20;;
41514;SDS011;27247;48.020;16.720;2024-02-26T20:30:28;4.15;;;2.38;;
41514;SDS011;27247;48.020;16.720;2024-02-26T20:34:39;4.45;;;2.58;;
41514;SDS011;27247;48.020;16.720;2024-02-26T20:38:51;5.50;;;2.72;;
41514;SDS011;27247;48.020;16.720;2024-02-26T20:43:03;5.05;;;2.50;;
41514;SDS011;27247;48.020;16.720;2024-02-26T20:47:14;3.42;;;2.38;;
41514;SDS011;27247;48.020;16.720;2024-02-26T20:51:28;5.53;;;2.70;;
41514;SDS011;27247;48.020;16.720;2024-02-26T20:55:39;2.90;;;2.22;;
41514;SDS011;27247;48.020;16.720;2024-02-26T20:59:51;6.50;;;2.35;;
41514;SDS011;27247;48.020;16.720;2024-02-26T21:04:02;4.65;;;2.67;;
41514;SDS011;27247;48.020;16.720;2024-02-26T21:08:13;5.70;;;2.30;;
41514;SDS011;27247;48.020;16.720;2024-02-26T21:12:24;4.28;;;2.38;;
41514;SDS011;27247;48.020;16.720;2024-02-26T21:16:35;5.10;;;2.55;;
41514;SDS011;27247;48.020;16.720;2024-02-26T21:20:45;5.18;;;2.30;;
41514;SDS011;27247;48.020;16.720;2024-02-26T21:24:56;4.88;;;2.67;;
41514;SDS011;27247;48.020;16.720;2024-02-26T21:29:07;3.83;;;2.00;;
41514;SDS011;27247;48.020;16.720;2024-02-26T21:33:17;4.77;;;2.37;;
41514;SDS011;27247;48.020;16.720;2024-02-26T21:37:27;7.47;;;2.40;;
41514;SDS011;27247;48.020;16.720;2024-02-26T21:41:38;3.05;;;2.22;;
41514;SDS011;27247;48.020;16.720;2024-02-26T21:45:48;4.27;;;2.50;;
41514;SDS011;27247;48.020;16.720;2024-02-26T21:49:58;4.27;;;1.97;;
41514;SDS011;27247;48.020;16.720;2024-02-26T21:54:09;5.57;;;2.53;;
41514;SDS011;27247;48.020;16.720;2024-02-26T21:58:20;6.88;;;2.00;;
41514;SDS011;27247;48.020;16.720;2024-02-26T22:02:30;5.63;;;2.45;;
41514;SDS011;27247;48.020;16.720;2024-02-26T22:06:41;6.22;;;2.10;;
41514;SDS011;27247;48.020;16.720;2024-02-26T22:10:54;5.15;;;2.25;;
41514;SDS011;27247;48.020;16.720;2024-02-26T22:15:05;4.18;;;2.08;;
41514;SDS011;27247;48.020;16.720;2024-02-26T22:19:17;5.40;;;2.22;;
41514;SDS011;27247;48.020;16.720;2024-02-26T22:23:28;3.40;;;2.17;;
41514;SDS011;27247;48.020;16.720;2024-02-26T22:27:38;3.35;;;2.10;;
41514;SDS011;27247;48.020;16.720;2024-02-26T22:31:48;6.20;;;2.10;;
41514;SDS011;27247;48.020;16.720;2024-02-26T22:36:02;7.80;;;2.53;;
41514;SDS011;27247;48.020;16.720;2024-02-26T22:40:13;6.20;;;2.20;;
41514;SDS011;27247;48.020;16.720;2024-02-26T22:44:23;2.90;;;1.80;;
41514;SDS011;27247;48.020;16.720;2024-02-26T22:48:33;3.73;;;1.93;;
41514;SDS011;27247;48.020;16.720;2024-02-26T22:52:44;4.97;;;2.17;;
41514;SDS011;27247;48.020;16.720;2024-02-26T22:56:55;7.40;;;2.10;;
41514;SDS011;27247;48.020;16.720;2024-02-26T23:01:06;6.00;;;2.03;;
41514;SDS011;27247;48.020;16.720;2024-02-26T23:05:17;3.85;;;2.20;;
41514;SDS011;27247;48.020;16.720;2024-02-26T23:09:27;3.67;;;1.93;;
41514;SDS011;27247;48.020;16.720;2024-02-26T23:13:38;4.50;;;2.25;;
41514;SDS011;27247;48.020;16.720;2024-02-26T23:17:51;3.63;;;2.45;;
41514;SDS011;27247;48.020;16.720;2024-02-26T23:22:04;4.80;;;2.17;;
41514;SDS011;27247;48.020;16.720;2024-02-26T23:26:15;4.73;;;2.47;;
41514;SDS011;27247;48.020;16.720;2024-02-26T23:30:25;8.27;;;2.75;;
41514;SDS011;27247;48.020;16.720;2024-02-26T23:34:37;5.03;;;2.70;;
41514;SDS011;27247;48.020;16.720;2024-02-26T23:38:47;6.32;;;2.30;;
41514;SDS011;27247;48.020;16.720;2024-02-26T23:42:57;5.37;;;2.77;;
41514;SDS011;27247;48.020;16.720;2024-02-26T23:47:08;4.87;;;2.43;;
41514;SDS011;27247;48.020;16.720;2024-02-26T23:51:18;4.50;;;2.67;;
41514;SDS011;27247;48.020;16.720;2024-02-26T23:55:29;3.47;;;2.10;;
41514;SDS011;27247;48.020;16.720;2024-02-26T23:59:39;3.92;;;2.20;;
